Time;durP1;ratioP1;P1;durP2;ratioP2;P2;SDS_P1;SDS_P2;PMS_P1;PMS_P2;Temp;Humidity;BMP_temperature;BMP_pressure;BME280_temperature;BME280_humidity;BME280_pressure;Samples;Min_cycle;Max_cycle;Signal;HPM_P1;HPM_P2
2022/07/05 00:00:05;;;;;;;2.42;1.35;;;18.10;58.50;;;;;;5041414;28;20025;-70
2022/07/05 00:02:31;;;;;;;2.00;1.27;;;18.10;58.70;;;;;;5044190;28;20534;-69
2022/07/05 00:04:56;;;;;;;1.38;1.20;;;18.10;58.80;;;;;;5042831;28;20029;-69
2022/07/05 00:07:22;;;;;;;1.77;1.27;;;18.10;58.80;;;;;;5049204;28;20120;-70
2022/07/05 00:09:56;;;;;;;1.95;1.40;;;18.10;58.80;;;;;;5034122;28;20037;-69
2022/07/05 00:12:25;;;;;;;2.00;1.50;;;18.00;58.90;;;;;;5040546;28;20029;-69
2022/07/05 00:14:51;;;;;;;1.77;1.52;;;18.00;59.10;;;;;;5040359;28;20079;-68
2022/07/05 00:17:17;;;;;;;2.38;1.52;;;18.00;59.20;;;;;;5061991;28;20029;-69
2022/07/05 00:19:43;;;;;;;2.30;1.50;;;17.90;59.30;;;;;;5048565;28;20045;-69
2022/07/05 00:22:09;;;;;;;2.83;1.40;;;17.90;59.50;;;;;;5037680;28;20025;-69
2022/07/05 00:24:35;;;;;;;2.75;1.48;;;17.90;59.60;;;;;;5033395;28;20041;-69
2022/07/05 00:27:01;;;;;;;1.85;1.52;;;17.80;59.60;;;;;;5037800;28;20111;-68
2022/07/05 00:29:27;;;;;;;1.92;1.50;;;17.90;59.80;;;;;;5042399;28;20111;-69
2022/07/05 00:31:52;;;;;;;2.08;1.60;;;17.80;59.90;;;;;;5043121;28;20029;-68
2022/07/05 00:34:18;;;;;;;1.67;1.50;;;17.80;59.90;;;;;;5040560;28;20026;-68
2022/07/05 00:36:43;;;;;;;2.10;1.38;;;17.70;59.90;;;;;;5044066;28;20025;-68
2022/07/05 00:39:09;;;;;;;2.30;1.50;;;17.70;59.90;;;;;;5049738;28;20028;-68
2022/07/05 00:41:38;;;;;;;2.60;1.60;;;17.70;60.20;;;;;;5041252;28;20026;-68
2022/07/05 00:44:06;;;;;;;1.58;1.48;;;17.60;60.30;;;;;;5037358;28;20086;-68
2022/07/05 00:46:33;;;;;;;2.05;1.50;;;17.60;60.40;;;;;;5038686;28;20025;-68
2022/07/05 00:49:00;;;;;;;2.83;1.70;;;17.60;60.40;;;;;;5046955;28;20037;-68
2022/07/05 00:51:28;;;;;;;2.22;1.58;;;17.50;60.30;;;;;;5036626;28;20574;-68
2022/07/05 00:53:54;;;;;;;1.63;1.50;;;17.50;60.40;;;;;;5035491;28;20471;-69
2022/07/05 00:56:20;;;;;;;1.65;1.52;;;17.50;60.40;;;;;;5049950;28;20032;-68
2022/07/05 00:58:46;;;;;;;2.20;1.58;;;17.40;60.50;;;;;;5050658;28;20018;-68
2022/07/05 01:01:12;;;;;;;2.05;1.55;;;17.40;60.70;;;;;;5047813;28;20099;-68
2022/07/05 01:03:38;;;;;;;1.77;1.58;;;17.40;60.90;;;;;;5044607;28;20018;-69
2022/07/05 01:06:09;;;;;;;2.13;1.60;;;17.40;60.80;;;;;;5047677;28;20026;-70
2022/07/05 01:08:37;;;;;;;1.67;1.50;;;17.30;60.90;;;;;;5034117;28;20057;-69
2022/07/05 01:11:03;;;;;;;2.58;1.58;;;17.30;61.10;;;;;;5034057;28;20021;-69
2022/07/05 01:13:29;;;;;;;3.17;1.70;;;17.20;61.40;;;;;;5033055;28;20441;-69
2022/07/05 01:15:55;;;;;;;2.35;1.80;;;17.30;61.40;;;;;;5033157;28;20063;-68
2022/07/05 01:18:21;;;;;;;2.58;1.98;;;17.20;61.40;;;;;;5036519;28;20439;-69
2022/07/05 01:20:48;;;;;;;2.53;1.73;;;17.20;61.40;;;;;;5039820;28;20025;-69
2022/07/05 01:23:14;;;;;;;2.85;1.38;;;17.10;61.50;;;;;;5045106;28;20025;-69
2022/07/05 01:25:40;;;;;;;2.35;1.70;;;17.10;61.80;;;;;;5048009;28;20123;-69
2022/07/05 01:28:06;;;;;;;2.83;1.67;;;17.00;62.10;;;;;;5042535;28;20032;-69
2022/07/05 01:30:34;;;;;;;1.65;1.45;;;17.00;62.30;;;;;;5044256;28;20033;-70
2022/07/05 01:33:00;;;;;;;2.38;1.80;;;17.00;62.40;;;;;;5030825;28;20025;-69
2022/07/05 01:35:25;;;;;;;2.75;1.55;;;17.00;62.50;;;;;;5030035;28;20041;-69
2022/07/05 01:37:51;;;;;;;2.40;1.50;;;17.00;62.50;;;;;;5042628;28;20024;-69
2022/07/05 01:40:19;;;;;;;2.55;1.70;;;16.90;62.50;;;;;;5029927;28;20109;-69
2022/07/05 01:42:46;;;;;;;2.25;1.70;;;16.90;62.60;;;;;;5038818;28;20466;-69
2022/07/05 01:45:12;;;;;;;2.33;1.50;;;16.90;62.70;;;;;;5047863;28;20495;-69
2022/07/05 01:47:44;;;;;;;1.70;1.60;;;16.90;62.80;;;;;;5036776;28;20047;-69
2022/07/05 01:50:13;;;;;;;2.10;1.50;;;16.80;63.00;;;;;;5030356;28;20028;-69
2022/07/05 01:52:42;;;;;;;2.40;1.70;;;16.80;63.20;;;;;;5043146;28;20036;-69
2022/07/05 01:55:07;;;;;;;2.67;1.60;;;16.80;63.10;;;;;;5041315;28;20025;-68
2022/07/05 01:57:33;;;;;;;2.95;1.67;;;16.70;63.10;;;;;;5033547;28;20031;-68
2022/07/05 01:59:58;;;;;;;1.58;1.40;;;16.80;63.10;;;;;;5037950;28;20045;-67
2022/07/05 02:02:24;;;;;;;2.22;1.60;;;16.70;63.10;;;;;;5034815;28;20075;-67
2022/07/05 02:04:49;;;;;;;3.15;1.52;;;16.70;63.30;;;;;;5036810;28;20037;-67
2022/07/05 02:07:15;;;;;;;2.95;1.65;;;16.70;63.40;;;;;;5034318;28;20034;-67
2022/07/05 02:09:41;;;;;;;3.03;1.60;;;16.60;63.30;;;;;;5042787;28;20031;-68
2022/07/05 02:12:07;;;;;;;1.98;1.55;;;16.70;63.40;;;;;;5042128;28;20487;-68
2022/07/05 02:14:33;;;;;;;1.60;1.50;;;16.70;63.50;;;;;;5045228;28;20471;-67
2022/07/05 02:16:59;;;;;;;1.67;1.50;;;16.60;63.40;;;;;;5042314;28;20021;-68
2022/07/05 02:19:25;;;;;;;1.67;1.50;;;16.60;63.60;;;;;;5039615;28;20025;-68
2022/07/05 02:21:50;;;;;;;2.08;1.40;;;16.60;63.70;;;;;;5035626;28;20036;-69
2022/07/05 02:24:16;;;;;;;1.83;1.50;;;16.60;63.80;;;;;;5052148;28;20799;-69
2022/07/05 02:26:41;;;;;;;2.80;1.60;;;16.60;63.90;;;;;;5039225;28;20052;-69
2022/07/05 02:29:07;;;;;;;1.40;1.30;;;16.60;64.10;;;;;;5049263;28;20033;-68
2022/07/05 02:31:33;;;;;;;2.40;1.20;;;16.60;64.10;;;;;;5043636;28;20025;-69
2022/07/05 02:33:58;;;;;;;1.40;1.20;;;16.60;64.10;;;;;;5033708;28;20025;-69
2022/07/05 02:36:24;;;;;;;1.63;1.27;;;16.60;64.10;;;;;;5044884;28;20032;-69
2022/07/05 02:38:50;;;;;;;1.50;1.35;;;16.60;64.10;;;;;;5047966;28;20028;-69
2022/07/05 02:41:16;;;;;;;3.83;1.55;;;16.60;64.30;;;;;;5039068;28;20159;-69
2022/07/05 02:43:41;;;;;;;2.45;1.20;;;16.60;64.40;;;;;;5031474;28;20104;-68
2022/07/05 02:46:08;;;;;;;1.40;1.25;;;16.60;64.40;;;;;;5039214;28;20448;-69
2022/07/05 02:48:36;;;;;;;1.35;1.17;;;16.70;64.40;;;;;;5043755;28;20029;-68
2022/07/05 02:51:02;;;;;;;2.42;1.50;;;16.70;64.40;;;;;;5032808;28;20108;-68
2022/07/05 02:53:28;;;;;;;1.20;1.10;;;16.70;64.40;;;;;;5043358;28;20032;-68
2022/07/05 02:55:54;;;;;;;1.48;1.38;;;16.70;64.50;;;;;;5042197;28;20036;-68
2022/07/05 02:58:20;;;;;;;2.00;1.30;;;16.70;64.60;;;;;;5042710;28;20028;-68
2022/07/05 03:00:48;;;;;;;1.23;1.13;;;16.80;64.60;;;;;;5039729;28;20075;-67
2022/07/05 03:03:15;;;;;;;1.52;1.10;;;16.70;64.70;;;;;;5034021;28;20021;-67
2022/07/05 03:05:41;;;;;;;1.70;1.23;;;16.80;65.00;;;;;;5045473;28;20025;-67
2022/07/05 03:08:06;;;;;;;3.35;1.20;;;16.80;65.00;;;;;;5041428;28;20111;-68
2022/07/05 03:10:33;;;;;;;1.90;1.38;;;16.80;65.00;;;;;;5040340;28;20029;-68
2022/07/05 03:12:58;;;;;;;2.88;1.30;;;16.80;64.90;;;;;;5040174;28;20029;-68
2022/07/05 03:15:24;;;;;;;1.92;1.20;;;16.90;65.70;;;;;;5045203;28;20632;-67
2022/07/05 03:17:50;;;;;;;2.20;1.58;;;17.00;65.00;;;;;;5033434;28;20380;-68
2022/07/05 03:20:16;;;;;;;1.98;1.58;;;17.00;64.80;;;;;;5029096;28;20026;-67
2022/07/05 03:22:41;;;;;;;2.22;1.40;;;17.00;64.70;;;;;;5040059;28;20025;-68
2022/07/05 03:25:07;;;;;;;2.63;1.70;;;17.00;64.80;;;;;;5030361;28;20039;-68
2022/07/05 03:27:33;;;;;;;1.42;1.20;;;17.10;64.90;;;;;;5047209;28;20029;-68
2022/07/05 03:29:58;;;;;;;2.13;1.50;;;17.10;64.80;;;;;;5032059;28;20082;-68
2022/07/05 03:32:24;;;;;;;3.08;1.50;;;17.10;64.70;;;;;;5031851;28;20033;-68
2022/07/05 03:34:49;;;;;;;2.08;1.70;;;17.10;64.60;;;;;;5034220;28;20025;-67
2022/07/05 03:37:15;;;;;;;2.40;1.80;;;17.10;64.60;;;;;;5038518;28;20030;-67
2022/07/05 03:39:41;;;;;;;3.13;2.10;;;17.10;64.60;;;;;;5029983;28;20031;-67
2022/07/05 03:42:07;;;;;;;2.38;1.77;;;17.10;64.40;;;;;;5030924;28;20026;-67
2022/07/05 03:44:32;;;;;;;4.00;2.17;;;17.20;64.30;;;;;;5004880;28;1044622;-67
2022/07/05 03:46:59;;;;;;;3.47;1.73;;;17.20;64.10;;;;;;5046303;28;20021;-67
2022/07/05 03:49:25;;;;;;;2.38;1.85;;;17.30;64.00;;;;;;5038299;28;20457;-68
2022/07/05 03:51:51;;;;;;;2.35;1.90;;;17.30;63.90;;;;;;5040590;28;20040;-68
2022/07/05 03:54:16;;;;;;;2.67;2.00;;;17.30;63.90;;;;;;5050309;28;20396;-67
2022/07/05 03:56:42;;;;;;;1.75;1.60;;;17.30;63.80;;;;;;5044819;28;20049;-69
2022/07/05 03:59:08;;;;;;;1.70;1.42;;;17.30;63.70;;;;;;5035961;28;20017;-69
2022/07/05 04:01:33;;;;;;;3.10;1.30;;;17.30;63.80;;;;;;5032368;28;20590;-68
2022/07/05 04:03:59;;;;;;;2.75;1.50;;;17.40;63.90;;;;;;5042238;28;20052;-67
2022/07/05 04:06:25;;;;;;;2.63;1.23;;;17.40;63.80;;;;;;5042320;28;20052;-67
2022/07/05 04:08:50;;;;;;;1.80;1.20;;;17.40;63.70;;;;;;5044609;28;20395;-68
2022/07/05 04:11:16;;;;;;;2.20;1.30;;;17.40;63.70;;;;;;5033213;28;20396;-68
2022/07/05 04:13:42;;;;;;;2.17;1.50;;;17.50;63.90;;;;;;5031786;28;20083;-68
2022/07/05 04:16:08;;;;;;;3.28;1.40;;;17.50;63.80;;;;;;5044650;28;20541;-68
2022/07/05 04:18:34;;;;;;;1.75;1.40;;;17.50;63.80;;;;;;5050522;28;20025;-68
2022/07/05 04:21:00;;;;;;;1.58;1.20;;;17.60;63.90;;;;;;5043843;28;20025;-68
2022/07/05 04:23:25;;;;;;;1.58;1.17;;;17.60;63.90;;;;;;5047802;28;20053;-68
2022/07/05 04:25:51;;;;;;;1.85;1.30;;;17.60;63.80;;;;;;5035755;28;20131;-68
2022/07/05 04:28:16;;;;;;;1.95;1.17;;;17.60;63.90;;;;;;5047476;28;20033;-68
2022/07/05 04:30:42;;;;;;;2.72;1.17;;;17.60;63.80;;;;;;5040904;28;20021;-68
2022/07/05 04:33:08;;;;;;;1.95;1.50;;;17.60;63.80;;;;;;5030727;28;20029;-68
2022/07/05 04:35:33;;;;;;;1.95;1.58;;;17.60;64.20;;;;;;5030329;28;20057;-67
2022/07/05 04:37:59;;;;;;;1.92;1.50;;;17.60;64.40;;;;;;5032757;28;20057;-67
2022/07/05 04:40:24;;;;;;;2.42;1.80;;;17.60;64.50;;;;;;5041103;28;20429;-67
2022/07/05 04:42:50;;;;;;;3.83;2.30;;;17.60;64.70;;;;;;5039233;28;20428;-68
2022/07/05 04:45:15;;;;;;;2.83;2.20;;;17.60;65.20;;;;;;5037328;28;20045;-69
2022/07/05 04:47:41;;;;;;;1.70;1.60;;;17.50;65.70;;;;;;5035601;28;20033;-68
2022/07/05 04:50:06;;;;;;;2.42;1.60;;;17.50;65.60;;;;;;5030511;28;20052;-68
2022/07/05 04:52:32;;;;;;;1.90;1.60;;;17.50;65.60;;;;;;5038929;28;20108;-67
2022/07/05 04:54:58;;;;;;;3.50;1.95;;;17.60;65.70;;;;;;5038437;28;20021;-67
2022/07/05 04:57:23;;;;;;;3.25;2.40;;;17.60;65.50;;;;;;5034458;28;20039;-67
2022/07/05 04:59:49;;;;;;;2.17;1.90;;;17.50;66.30;;;;;;5041216;28;20059;-67
2022/07/05 05:02:15;;;;;;;2.97;2.15;;;17.50;66.50;;;;;;5036065;28;20502;-67
2022/07/05 05:04:40;;;;;;;4.45;2.40;;;17.50;66.70;;;;;;5047273;28;20545;-68
2022/07/05 05:07:06;;;;;;;3.80;2.08;;;17.50;66.70;;;;;;5030676;28;20033;-68
2022/07/05 05:09:31;;;;;;;3.03;2.10;;;17.50;66.90;;;;;;5048019;28;20480;-68
2022/07/05 05:11:57;;;;;;;3.72;2.70;;;17.60;66.70;;;;;;5043496;28;20033;-67
2022/07/05 05:14:22;;;;;;;3.97;2.50;;;17.60;66.70;;;;;;5045667;28;20100;-67
2022/07/05 05:16:48;;;;;;;3.85;2.78;;;17.60;67.10;;;;;;5034116;28;20029;-67
2022/07/05 05:19:13;;;;;;;3.25;2.40;;;17.60;67.40;;;;;;5046445;28;20053;-68
2022/07/05 05:21:39;;;;;;;3.40;2.60;;;17.60;67.40;;;;;;5039551;28;20026;-68
2022/07/05 05:24:05;;;;;;;3.20;2.20;;;17.60;67.80;;;;;;5048928;28;20445;-67
2022/07/05 05:26:31;;;;;;;4.18;3.00;;;17.70;67.60;;;;;;5047931;28;20021;-68
2022/07/05 05:28:56;;;;;;;4.10;2.72;;;17.70;67.40;;;;;;5035250;28;20415;-67
2022/07/05 05:31:22;;;;;;;4.97;4.18;;;17.80;67.30;;;;;;5042357;28;20024;-68
2022/07/05 05:33:47;;;;;;;4.15;3.40;;;17.90;67.40;;;;;;5030608;28;20032;-67
2022/07/05 05:36:13;;;;;;;5.05;4.55;;;18.00;67.30;;;;;;5029170;28;20029;-67
2022/07/05 05:38:39;;;;;;;6.40;4.53;;;18.00;67.40;;;;;;5029556;28;20087;-67
2022/07/05 05:41:04;;;;;;;6.25;4.82;;;18.00;67.40;;;;;;5029124;28;20032;-68
2022/07/05 05:43:30;;;;;;;5.00;4.25;;;18.10;67.50;;;;;;5047206;28;20017;-67
2022/07/05 05:45:56;;;;;;;4.07;3.63;;;18.20;67.50;;;;;;5049447;28;20027;-68
2022/07/05 05:48:22;;;;;;;4.13;3.50;;;18.40;66.90;;;;;;5043850;28;20586;-68
2022/07/05 05:50:48;;;;;;;4.53;4.10;;;18.50;66.60;;;;;;5043799;28;20033;-68
2022/07/05 05:53:13;;;;;;;5.03;3.75;;;18.60;66.30;;;;;;5044886;28;20040;-67
2022/07/05 05:55:40;;;;;;;3.47;2.85;;;18.80;66.10;;;;;;5037047;28;20041;-67
2022/07/05 05:58:21;;;;;;;4.18;3.45;;;19.10;65.60;;;;;;5043696;28;20032;-67
2022/07/05 06:00:52;;;;;;;4.57;3.70;;;19.20;65.00;;;;;;5048789;28;20079;-67
2022/07/05 06:03:27;;;;;;;5.60;3.85;;;19.20;64.70;;;;;;5046852;28;20021;-68
2022/07/05 06:05:52;;;;;;;5.97;4.18;;;19.30;64.60;;;;;;5047645;28;20391;-68
2022/07/05 06:08:19;;;;;;;5.40;4.50;;;19.30;64.60;;;;;;5032708;28;20078;-67
2022/07/05 06:10:45;;;;;;;6.53;5.03;;;19.20;64.60;;;;;;5046289;28;20483;-67
2022/07/05 06:13:12;;;;;;;6.60;4.30;;;19.20;64.60;;;;;;5040733;28;20104;-67
2022/07/05 06:15:39;;;;;;;4.03;3.60;;;19.30;64.50;;;;;;5046876;28;20079;-66
2022/07/05 06:18:06;;;;;;;4.20;3.40;;;19.30;64.30;;;;;;5045917;28;20025;-67
2022/07/05 06:20:34;;;;;;;5.53;3.35;;;19.50;64.00;;;;;;5045588;28;20039;-67
2022/07/05 06:23:01;;;;;;;4.75;4.00;;;19.70;63.50;;;;;;5030169;28;20021;-67
2022/07/05 06:25:27;;;;;;;3.58;3.20;;;19.80;63.20;;;;;;5041164;28;20044;-67
2022/07/05 06:27:55;;;;;;;5.13;3.35;;;20.00;62.90;;;;;;5040538;28;20395;-67
2022/07/05 06:30:30;;;;;;;3.95;3.15;;;20.20;62.50;;;;;;5038895;28;20083;-67
2022/07/05 06:32:56;;;;;;;4.60;2.83;;;20.20;62.10;;;;;;5039737;28;20025;-67
2022/07/05 06:35:22;;;;;;;4.07;3.22;;;20.30;61.90;;;;;;5042592;28;20029;-67
2022/07/05 06:37:53;;;;;;;4.28;2.72;;;20.40;61.60;;;;;;5037867;28;20024;-68
2022/07/05 06:40:20;;;;;;;4.30;3.30;;;20.50;61.40;;;;;;5045204;28;20021;-68
2022/07/05 06:42:46;;;;;;;4.47;3.08;;;20.60;61.20;;;;;;5047459;28;20025;-67
2022/07/05 06:45:12;;;;;;;4.53;3.20;;;20.80;60.90;;;;;;5044071;28;20040;-68
2022/07/05 06:47:38;;;;;;;4.50;2.90;;;21.00;60.50;;;;;;5039330;28;20068;-68
2022/07/05 06:50:05;;;;;;;4.70;3.78;;;21.30;60.00;;;;;;5048053;28;20491;-68
2022/07/05 06:52:32;;;;;;;5.18;3.10;;;21.40;59.20;;;;;;5052098;28;20039;-68
2022/07/05 06:54:59;;;;;;;6.38;3.00;;;21.40;58.80;;;;;;5049816;28;20392;-68
2022/07/05 06:57:25;;;;;;;4.57;2.63;;;21.60;58.90;;;;;;5035744;28;20427;-68
2022/07/05 06:59:51;;;;;;;7.00;3.60;;;21.70;58.70;;;;;;5045452;28;20108;-68
2022/07/05 07:02:19;;;;;;;4.95;3.20;;;21.80;58.10;;;;;;5034727;28;20059;-68
2022/07/05 07:04:44;;;;;;;2.95;2.38;;;21.80;58.00;;;;;;5046764;28;20029;-68
2022/07/05 07:09:58;;;;;;;4.95;2.88;;;22.10;57.80;;;;;;5043491;28;20093;-68
2022/07/05 07:12:24;;;;;;;4.38;3.38;;;22.10;57.60;;;;;;5048297;28;20082;-68
2022/07/05 07:14:52;;;;;;;5.57;3.25;;;22.20;57.50;;;;;;5045817;28;20434;-68
2022/07/05 07:17:18;;;;;;;5.50;3.78;;;22.40;57.10;;;;;;5045207;28;20107;-68
2022/07/05 07:19:43;;;;;;;5.10;3.38;;;22.50;56.80;;;;;;5039975;28;20101;-68
2022/07/05 07:22:09;;;;;;;4.88;3.50;;;22.60;56.70;;;;;;5048855;28;20020;-68
2022/07/05 07:24:34;;;;;;;4.70;3.20;;;22.70;56.40;;;;;;5050581;28;20025;-68
2022/07/05 07:27:03;;;;;;;3.42;2.47;;;23.00;56.10;;;;;;5047328;28;20025;-68
2022/07/05 07:29:33;;;;;;;4.13;3.05;;;23.10;55.20;;;;;;5046469;28;20045;-68
2022/07/05 07:31:59;;;;;;;4.53;3.15;;;23.20;54.60;;;;;;5042847;28;20021;-68
2022/07/05 07:34:26;;;;;;;4.57;3.33;;;23.30;54.50;;;;;;5040857;28;20099;-68
2022/07/05 07:36:53;;;;;;;4.43;3.10;;;23.30;54.20;;;;;;5041996;28;20029;-68
2022/07/05 07:39:19;;;;;;;4.80;2.88;;;23.50;54.10;;;;;;5044264;28;20044;-68
2022/07/05 07:41:44;;;;;;;6.18;3.80;;;23.60;53.90;;;;;;5041192;28;20017;-68
2022/07/05 07:44:10;;;;;;;5.00;3.47;;;23.50;52.30;;;;;;5040050;28;20041;-67
2022/07/05 07:46:36;;;;;;;6.30;3.55;;;23.30;52.00;;;;;;5042134;28;20018;-68
2022/07/05 07:49:02;;;;;;;2.53;2.22;;;23.30;51.90;;;;;;5038635;28;20030;-69
2022/07/05 07:51:29;;;;;;;3.00;2.00;;;23.20;52.20;;;;;;5037411;28;20108;-67
2022/07/05 07:53:55;;;;;;;4.60;2.28;;;23.30;52.00;;;;;;5045013;28;20029;-68
2022/07/05 07:56:20;;;;;;;3.60;2.45;;;23.30;51.70;;;;;;5045366;28;20025;-68
2022/07/05 07:58:47;;;;;;;2.63;2.00;;;22.90;50.10;;;;;;5044153;28;20032;-67
2022/07/05 08:01:13;;;;;;;4.90;2.80;;;22.70;50.90;;;;;;5037159;28;20032;-68
2022/07/05 08:03:39;;;;;;;3.22;2.20;;;22.70;51.60;;;;;;5035257;28;20032;-68
2022/07/05 08:06:07;;;;;;;3.13;1.73;;;22.80;52.10;;;;;;5049539;28;20017;-69
2022/07/05 08:08:33;;;;;;;2.95;1.90;;;23.00;51.80;;;;;;5049150;28;20017;-67
2022/07/05 08:10:59;;;;;;;2.72;1.92;;;23.20;51.50;;;;;;5048770;28;20060;-67
2022/07/05 08:13:25;;;;;;;2.50;1.92;;;23.30;51.40;;;;;;5048744;28;20048;-67
2022/07/05 08:15:51;;;;;;;2.05;1.83;;;23.40;51.00;;;;;;5050141;28;20403;-67
2022/07/05 08:23:45;;;;;;;3.05;1.80;;;23.40;50.50;;;;;;5051471;28;20098;-67
2022/07/05 08:26:10;;;;;;;2.17;1.60;;;23.40;50.50;;;;;;5046850;28;20073;-67
2022/07/05 08:28:36;;;;;;;2.00;1.35;;;23.50;50.40;;;;;;5048248;28;20104;-67
2022/07/05 08:31:01;;;;;;;2.42;1.50;;;23.50;50.10;;;;;;5045858;28;20025;-67
2022/07/05 08:33:27;;;;;;;2.85;1.55;;;23.60;49.90;;;;;;5048314;28;20021;-67
2022/07/05 08:35:52;;;;;;;1.23;1.13;;;23.60;49.90;;;;;;5049078;28;20119;-67
2022/07/05 08:38:18;;;;;;;2.80;1.50;;;23.70;49.60;;;;;;5044997;28;20020;-68
2022/07/05 08:40:51;;;;;;;3.00;2.15;;;23.70;49.40;;;;;;5049842;28;20406;-66
2022/07/05 08:43:18;;;;;;;4.18;1.63;;;23.70;48.50;;;;;;5043350;28;20037;-67
2022/07/05 08:45:44;;;;;;;3.45;2.58;;;23.40;47.90;;;;;;5042092;28;20380;-67
2022/07/05 08:48:10;;;;;;;4.38;1.77;;;23.20;48.70;;;;;;5048504;28;20107;-67
2022/07/05 08:50:44;;;;;;;2.45;1.90;;;23.30;49.30;;;;;;5044763;28;20033;-67
2022/07/05 08:53:10;;;;;;;4.80;2.92;;;23.40;49.50;;;;;;5052208;28;20500;-67
2022/07/05 08:55:35;;;;;;;2.60;2.00;;;23.40;49.00;;;;;;5048266;28;20037;-67
2022/07/05 08:58:02;;;;;;;3.20;2.10;;;23.40;49.50;;;;;;5046937;28;20021;-67
2022/07/05 09:00:28;;;;;;;2.10;1.90;;;23.60;49.60;;;;;;5046288;28;20037;-67
2022/07/05 09:02:54;;;;;;;1.92;1.40;;;23.80;49.40;;;;;;5055949;28;20020;-67
2022/07/05 09:05:22;;;;;;;3.88;2.22;;;23.80;49.00;;;;;;5052648;28;20029;-68
2022/07/05 09:07:57;;;;;;;3.00;2.13;;;23.90;48.60;;;;;;5047884;28;20025;-68
2022/07/05 09:10:26;;;;;;;2.15;1.92;;;23.90;48.60;;;;;;5046378;28;20037;-68
2022/07/05 09:12:51;;;;;;;2.90;2.17;;;24.00;48.80;;;;;;5046160;28;20037;-68
2022/07/05 09:15:17;;;;;;;3.63;2.10;;;24.10;48.60;;;;;;5046415;28;20441;-67
2022/07/05 09:17:45;;;;;;;3.55;2.88;;;24.30;48.60;;;;;;5044688;28;20499;-67
2022/07/05 09:20:13;;;;;;;3.35;2.58;;;24.30;48.20;;;;;;5041090;28;20082;-68
2022/07/05 09:22:55;;;;;;;3.60;2.75;;;24.40;48.30;;;;;;5043037;28;20515;-68
2022/07/05 09:25:30;;;;;;;;;;;24.50;48.50;;;;;;5045873;28;20040;-67
2022/07/05 09:28:06;;;;;;;3.30;2.40;;;24.50;48.60;;;;;;5046787;28;19913;-68
2022/07/05 09:30:33;;;;;;;2.40;2.20;;;24.50;48.10;;;;;;5045516;28;20385;-69
2022/07/05 09:33:03;;;;;;;4.28;2.80;;;24.50;48.20;;;;;;5041572;28;20090;-68
2022/07/05 09:35:34;;;;;;;1.77;1.65;;;24.40;47.30;;;;;;5045565;28;20029;-68
2022/07/05 09:38:02;;;;;;;2.60;1.90;;;24.40;47.70;;;;;;5042998;28;20036;-68
2022/07/05 09:40:46;;;;;;;3.25;1.80;;;24.60;47.80;;;;;;5047922;28;20033;-68
2022/07/05 09:43:14;;;;;;;3.83;2.90;;;24.70;47.70;;;;;;5044973;28;20756;-69
2022/07/05 09:45:40;;;;;;;2.58;1.95;;;24.60;47.10;;;;;;5040980;28;20033;-66
2022/07/05 09:48:08;;;;;;;2.30;1.90;;;24.40;47.30;;;;;;5041762;28;20028;-67
2022/07/05 09:50:35;;;;;;;2.40;1.88;;;24.30;47.50;;;;;;5049264;28;20040;-67
2022/07/05 09:53:01;;;;;;;2.08;1.83;;;24.20;47.80;;;;;;5045117;28;20696;-68
2022/07/05 09:55:26;;;;;;;2.50;2.00;;;24.10;47.90;;;;;;5044859;28;20041;-68
2022/07/05 09:57:53;;;;;;;3.20;2.50;;;24.00;48.40;;;;;;5046850;28;20442;-68
2022/07/05 10:00:21;;;;;;;3.28;2.60;;;23.90;48.60;;;;;;5042566;28;20021;-68
2022/07/05 10:03:00;;;;;;;4.10;3.70;;;23.80;48.90;;;;;;5045209;28;20020;-68
2022/07/05 10:05:27;;;;;;;4.28;3.42;;;23.70;49.20;;;;;;5037449;28;20026;-68
2022/07/05 10:07:58;;;;;;;4.32;3.67;;;23.60;49.60;;;;;;5044632;28;20668;-68
2022/07/05 10:10:24;;;;;;;7.78;5.18;;;23.70;49.90;;;;;;5045118;28;20095;-68
2022/07/05 10:12:55;;;;;;;7.10;5.32;;;23.70;49.80;;;;;;5048546;28;20028;-68
2022/07/05 10:15:23;;;;;;;6.88;4.90;;;23.80;49.90;;;;;;5050019;28;20075;-68
2022/07/05 10:18:11;;;;;;;4.97;3.58;;;23.80;49.90;;;;;;5052241;28;20691;-68
2022/07/05 10:20:37;;;;;;;3.33;2.60;;;23.90;49.20;;;;;;5051371;28;20025;-68
2022/07/05 10:23:10;;;;;;;5.90;3.40;;;24.20;49.00;;;;;;5050737;28;20043;-68
2022/07/05 10:25:38;;;;;;;3.33;2.80;;;24.50;48.30;;;;;;5053745;28;20029;-68
2022/07/05 10:28:05;;;;;;;5.35;3.38;;;24.40;48.00;;;;;;5054242;28;20074;-68
2022/07/05 10:30:31;;;;;;;4.00;3.00;;;24.50;47.80;;;;;;5050866;28;20021;-68
2022/07/05 10:32:57;;;;;;;5.93;3.47;;;24.50;47.90;;;;;;5048282;28;20025;-68
2022/07/05 10:35:24;;;;;;;5.07;3.55;;;24.60;47.60;;;;;;5051214;28;20379;-68
2022/07/05 10:37:50;;;;;;;3.55;2.80;;;24.60;47.10;;;;;;5050233;28;20020;-67
2022/07/05 10:40:18;;;;;;;4.30;3.33;;;24.70;47.60;;;;;;5049124;28;20040;-67
2022/07/05 10:42:55;;;;;;;4.43;2.80;;;24.70;46.60;;;;;;5049558;28;20376;-68
2022/07/05 10:45:34;;;;;;;1.75;1.65;;;24.70;46.10;;;;;;5050935;28;20033;-68
2022/07/05 10:48:09;;;;;;;2.85;2.28;;;24.90;46.40;;;;;;5050855;28;20028;-68
2022/07/05 10:51:13;;;;;;;1.83;1.70;;;24.80;46.00;;;;;;5052787;28;20049;-67
2022/07/05 10:53:39;;;;;;;4.05;2.45;;;24.90;46.20;;;;;;5051388;28;20402;-68
2022/07/05 10:56:04;;;;;;;3.33;2.30;;;24.90;45.80;;;;;;5051704;28;20029;-67
2022/07/05 10:58:37;;;;;;;2.13;1.60;;;24.80;45.80;;;;;;5051014;28;20079;-67
2022/07/05 11:01:12;;;;;;;1.95;1.70;;;24.90;46.30;;;;;;5050671;28;20014;-67
2022/07/05 11:03:47;;;;;;;2.88;2.03;;;25.10;46.40;;;;;;5053693;28;20033;-68
2022/07/05 11:06:29;;;;;;;1.55;1.42;;;25.30;46.20;;;;;;5050465;28;20033;-68
2022/07/05 11:09:04;;;;;;;1.65;1.30;;;25.30;46.00;;;;;;5052020;28;20017;-67
2022/07/05 11:11:33;;;;;;;2.00;1.20;;;25.30;45.00;;;;;;5048399;28;20104;-68
2022/07/05 11:14:01;;;;;;;2.88;1.00;;;25.20;44.70;;;;;;5052577;28;20021;-67
2022/07/05 11:16:28;;;;;;;1.40;1.10;;;25.10;44.50;;;;;;5052045;28;20017;-68
2022/07/05 11:19:06;;;;;;;1.92;1.05;;;25.00;44.30;;;;;;5050528;28;20083;-69
2022/07/05 11:21:33;;;;;;;1.55;1.00;;;24.90;44.50;;;;;;5049052;28;20017;-69
2022/07/05 11:24:25;;;;;;;1.85;0.80;;;24.80;44.50;;;;;;5048178;28;20027;-68
2022/07/05 11:26:53;;;;;;;1.15;0.80;;;24.80;44.70;;;;;;5051902;28;20057;-68
2022/07/05 11:29:43;;;;;;;2.97;0.90;;;24.80;44.70;;;;;;5051993;28;20098;-67
2022/07/05 11:32:13;;;;;;;1.05;0.88;;;24.70;45.00;;;;;;5047590;28;20028;-68
2022/07/05 11:34:41;;;;;;;1.58;0.90;;;24.60;44.90;;;;;;5050386;28;20035;-68
2022/07/05 11:37:28;;;;;;;1.77;0.95;;;24.40;44.80;;;;;;5045845;28;20021;-68
2022/07/05 11:40:11;;;;;;;0.95;0.80;;;24.30;44.80;;;;;;5049820;28;20052;-68
2022/07/05 11:42:47;;;;;;;1.27;0.80;;;24.10;45.20;;;;;;5046797;28;20029;-68
2022/07/05 11:45:14;;;;;;;1.58;0.98;;;24.10;45.40;;;;;;5050467;28;20039;-68
2022/07/05 11:47:41;;;;;;;1.13;0.85;;;24.20;45.40;;;;;;5051056;28;20035;-68
2022/07/05 11:50:07;;;;;;;1.58;0.77;;;24.50;45.10;;;;;;5051124;28;20099;-68
2022/07/05 11:52:35;;;;;;;0.80;0.80;;;24.60;44.90;;;;;;5052812;28;20024;-68
2022/07/05 11:55:06;;;;;;;1.77;0.80;;;24.90;44.50;;;;;;5050094;28;20637;-67
2022/07/05 11:57:31;;;;;;;2.88;1.05;;;25.10;43.70;;;;;;5049593;28;20117;-67
2022/07/05 11:59:57;;;;;;;1.90;0.88;;;25.30;43.40;;;;;;5047961;28;20100;-68
2022/07/05 12:02:23;;;;;;;2.10;0.80;;;25.40;43.20;;;;;;5049485;28;20018;-68
2022/07/05 12:04:49;;;;;;;1.10;0.90;;;25.60;42.80;;;;;;5050077;28;20095;-68
2022/07/05 12:07:28;;;;;;;2.20;0.75;;;25.60;42.20;;;;;;5050053;28;20033;-68
2022/07/05 12:12:44;;;;;;;0.68;0.52;;;25.90;41.40;;;;;;5049511;28;20048;-68
2022/07/05 12:15:11;;;;;;;0.50;0.50;;;25.80;41.40;;;;;;5043137;28;20035;-68
2022/07/05 12:17:39;;;;;;;1.48;0.70;;;25.70;41.70;;;;;;5052370;28;20079;-68
2022/07/05 12:20:06;;;;;;;2.47;0.80;;;25.90;41.60;;;;;;5049306;28;20024;-68
2022/07/05 12:22:32;;;;;;;1.58;0.90;;;26.00;41.30;;;;;;5047909;28;20495;-67
2022/07/05 12:24:58;;;;;;;1.60;0.80;;;26.00;41.00;;;;;;5050196;28;20032;-67
2022/07/05 12:27:26;;;;;;;0.70;0.63;;;26.00;41.10;;;;;;5049864;28;20035;-67
2022/07/05 12:29:52;;;;;;;1.30;0.70;;;26.00;41.40;;;;;;5052037;28;20130;-67
2022/07/05 12:32:17;;;;;;;1.23;0.65;;;26.10;41.20;;;;;;5047831;28;20032;-67
2022/07/05 12:34:43;;;;;;;1.65;0.55;;;26.40;41.00;;;;;;5048486;28;20029;-67
2022/07/05 12:37:09;;;;;;;1.10;0.70;;;26.80;40.90;;;;;;5049331;28;20021;-67
2022/07/05 12:39:35;;;;;;;0.52;0.52;;;27.00;40.20;;;;;;5051406;28;20392;-68
2022/07/05 12:42:00;;;;;;;1.88;0.82;;;27.30;40.00;;;;;;5050526;28;20021;-67
2022/07/05 12:44:26;;;;;;;5.97;1.33;;;27.30;39.60;;;;;;5046367;28;20071;-68
2022/07/05 12:46:52;;;;;;;1.20;0.60;;;27.40;39.40;;;;;;5051347;28;20036;-67
2022/07/05 12:49:19;;;;;;;2.58;0.55;;;27.50;39.10;;;;;;5049669;28;20048;-67
2022/07/05 12:51:45;;;;;;;1.23;0.60;;;27.40;38.90;;;;;;5047792;28;20021;-67
2022/07/05 13:00:06;;;;;;;1.73;0.80;;;26.80;39.90;;;;;;5051106;28;20051;-68
2022/07/05 13:02:39;;;;;;;3.05;0.63;;;26.50;40.10;;;;;;5049768;28;20029;-68
2022/07/05 13:05:07;;;;;;;1.67;1.08;;;26.40;39.90;;;;;;5048139;28;20044;-68